createdAt,value
2017-02-27T00:00:54.020Z,0
2017-02-27T00:02:04.786Z,0
2017-02-27T00:03:15.397Z,0
2017-02-27T00:04:25.772Z,0
2017-02-27T00:05:36.123Z,0
2017-02-27T00:06:46.888Z,0
2017-02-27T00:07:57.646Z,0
2017-02-27T00:09:08.671Z,0
2017-02-27T00:10:19.442Z,0
2017-02-27T00:11:29.387Z,0
2017-02-27T00:12:39.777Z,0
2017-02-27T00:13:50.545Z,0
2017-02-27T00:15:01.212Z,0
2017-02-27T00:16:11.973Z,0
2017-02-27T00:17:22.735Z,0
2017-02-27T00:18:33.512Z,0
2017-02-27T00:19:44.267Z,0
2017-02-27T00:20:54.559Z,0
2017-02-27T00:22:05.313Z,0
2017-02-27T00:23:15.691Z,0
2017-02-27T00:24:26.072Z,0
2017-02-27T00:25:36.840Z,0
2017-02-27T00:26:47.909Z,0
2017-02-27T00:27:58.667Z,0
2017-02-27T00:29:09.421Z,0
2017-02-27T00:30:20.184Z,0
2017-02-27T00:31:30.568Z,0
2017-02-27T00:32:41.578Z,0
2017-02-27T00:33:51.930Z,0
2017-02-27T00:35:02.696Z,0
2017-02-27T00:36:13.483Z,0
2017-02-27T00:37:24.286Z,0
2017-02-27T00:38:34.972Z,0
2017-02-27T00:39:45.323Z,0
2017-02-27T00:40:56.088Z,0
2017-02-27T00:42:06.841Z,0
2017-02-27T00:43:17.598Z,0
2017-02-27T00:44:28.605Z,0
2017-02-27T00:45:38.578Z,0
2017-02-27T00:46:48.942Z,0
2017-02-27T00:47:59.720Z,0
2017-02-27T00:49:10.078Z,0
2017-02-27T00:50:20.677Z,0
2017-02-27T00:51:31.411Z,0
2017-02-27T00:52:42.213Z,0
2017-02-27T00:53:52.603Z,0
2017-02-27T00:55:02.174Z,0
2017-02-27T00:56:13.175Z,0
2017-02-27T00:57:23.547Z,0
2017-02-27T00:58:34.286Z,0
2017-02-27T00:59:44.634Z,0
2017-02-27T01:00:55.406Z,0
2017-02-27T01:02:06.005Z,0
2017-02-27T01:03:16.785Z,0
2017-02-27T01:04:27.547Z,0
2017-02-27T01:05:38.314Z,0
2017-02-27T01:06:48.663Z,0
2017-02-27T01:07:58.945Z,0
2017-02-27T01:09:08.494Z,0
2017-02-27T01:10:18.868Z,0
2017-02-27T01:11:29.619Z,0
2017-02-27T01:12:39.591Z,0
2017-02-27T01:13:50.650Z,0
2017-02-27T01:15:01.400Z,0
2017-02-27T01:16:11.349Z,0
2017-02-27T01:17:22.132Z,0
2017-02-27T01:18:32.497Z,0
2017-02-27T01:19:43.550Z,0
2017-02-27T01:20:53.506Z,0
2017-02-27T01:22:04.254Z,0
2017-02-27T01:23:14.219Z,0
2017-02-27T01:24:24.584Z,0
2017-02-27T01:25:35.268Z,0
2017-02-27T01:26:46.007Z,0
2017-02-27T01:27:56.356Z,0
2017-02-27T01:29:06.702Z,0
2017-02-27T01:30:17.457Z,0
2017-02-27T01:31:27.668Z,0
2017-02-27T01:32:38.011Z,0
2017-02-27T01:33:48.750Z,0
2017-02-27T01:53:06.385Z,0
2017-02-27T01:54:17.371Z,0
2017-02-27T01:55:28.113Z,0
2017-02-27T01:56:38.088Z,0
2017-02-27T01:57:48.459Z,0
2017-02-27T01:58:58.820Z,0
2017-02-27T02:00:09.822Z,0
2017-02-27T02:01:20.577Z,0
2017-02-27T02:02:30.558Z,0
2017-02-27T02:03:41.310Z,0
2017-02-27T02:04:51.658Z,0
2017-02-27T02:06:02.254Z,0
2017-02-27T02:07:12.226Z,0
2017-02-27T02:08:22.593Z,0
2017-02-27T02:09:33.364Z,0
2017-02-27T02:10:44.119Z,0
2017-02-27T02:11:55.128Z,0
2017-02-27T02:13:05.479Z,0
2017-02-27T02:14:16.245Z,0
2017-02-27T02:15:27.004Z,0
2017-02-27T02:16:37.375Z,0
2017-02-27T02:17:47.972Z,0
2017-02-27T02:18:58.772Z,0
2017-02-27T02:20:09.138Z,0
2017-02-27T02:21:19.512Z,0
2017-02-27T02:22:30.267Z,0
2017-02-27T02:23:41.279Z,0
2017-02-27T02:24:52.034Z,0
2017-02-27T02:26:02.798Z,0
2017-02-27T02:27:13.141Z,0
2017-02-27T02:28:23.915Z,0
2017-02-27T02:29:35.000Z,0
2017-02-27T02:30:44.938Z,0
2017-02-27T02:31:55.701Z,0
2017-02-27T02:33:06.065Z,0
2017-02-27T02:34:16.413Z,0
2017-02-27T02:35:27.022Z,0
2017-02-27T02:36:37.387Z,0
2017-02-27T02:37:47.743Z,0
2017-02-27T02:38:58.091Z,0
2017-02-27T02:40:08.453Z,0
2017-02-27T02:41:19.448Z,0
2017-02-27T02:42:30.065Z,0
2017-02-27T02:43:40.846Z,0
2017-02-27T02:44:51.634Z,0
2017-02-27T02:46:02.011Z,0
2017-02-27T02:47:13.013Z,0
2017-02-27T02:48:23.781Z,0
2017-02-27T02:49:34.162Z,0
2017-02-27T02:50:44.527Z,0
2017-02-27T02:51:54.920Z,0
2017-02-27T02:53:05.983Z,0
2017-02-27T02:54:15.967Z,0
2017-02-27T02:55:26.715Z,0
2017-02-27T02:56:36.693Z,0
2017-02-27T02:57:47.065Z,0
2017-02-27T02:58:57.665Z,0
2017-02-27T03:00:08.035Z,0
2017-02-27T03:01:18.389Z,0
2017-02-27T03:02:28.354Z,0
2017-02-27T03:03:38.338Z,0
2017-02-27T03:04:48.933Z,0
2017-02-27T03:05:59.694Z,0
2017-02-27T03:07:10.091Z,0
2017-02-27T03:08:20.853Z,0
2017-02-27T03:09:31.196Z,0
2017-02-27T03:10:41.823Z,0
2017-02-27T03:11:52.588Z,0
2017-02-27T03:13:02.955Z,0
2017-02-27T03:14:13.796Z,0
2017-02-27T03:15:24.530Z,0
2017-02-27T03:16:35.573Z,0
2017-02-27T03:17:45.534Z,0
2017-02-27T03:18:56.296Z,0
2017-02-27T03:20:07.300Z,0
2017-02-27T03:21:17.259Z,0
2017-02-27T03:22:27.880Z,0
2017-02-27T03:23:38.224Z,0
2017-02-27T03:24:48.593Z,0
2017-02-27T03:25:58.957Z,0
2017-02-27T03:27:09.345Z,0
2017-02-27T03:28:19.947Z,0
2017-02-27T03:29:30.696Z,0
2017-02-27T03:30:41.053Z,0
2017-02-27T03:31:51.028Z,0
2017-02-27T03:33:01.777Z,0
2017-02-27T03:34:12.443Z,0
2017-02-27T03:35:22.825Z,0
2017-02-27T03:36:33.583Z,0
2017-02-27T03:37:44.322Z,0
2017-02-27T03:38:55.073Z,0
2017-02-27T03:40:05.701Z,0
2017-02-27T03:41:16.446Z,0
2017-02-27T03:42:27.191Z,0
2017-02-27T03:43:37.576Z,0
2017-02-27T03:44:48.333Z,0
2017-02-27T03:45:59.002Z,0
2017-02-27T03:47:09.368Z,0
2017-02-27T03:48:20.113Z,0
2017-02-27T03:49:30.862Z,0
2017-02-27T03:50:41.636Z,0
2017-02-27T03:51:52.663Z,0
2017-02-27T03:53:03.441Z,0
2017-02-27T03:54:13.792Z,0
2017-02-27T03:55:24.190Z,0
2017-02-27T03:56:34.166Z,0
2017-02-27T03:57:44.846Z,0
2017-02-27T03:58:55.610Z,0
2017-02-27T04:00:06.362Z,0
2017-02-27T04:01:16.742Z,0
2017-02-27T04:02:27.332Z,0
2017-02-27T04:03:38.340Z,0
2017-02-27T04:04:49.093Z,0
2017-02-27T04:05:59.476Z,0
2017-02-27T04:07:10.286Z,0
2017-02-27T04:08:20.270Z,0
2017-02-27T04:09:31.288Z,0
2017-02-27T04:10:42.068Z,0
2017-02-27T04:11:52.426Z,0
2017-02-27T04:13:02.388Z,0
2017-02-27T04:14:13.149Z,0
2017-02-27T04:15:24.148Z,0
2017-02-27T04:16:34.111Z,0
2017-02-27T04:17:44.858Z,0
2017-02-27T04:18:55.597Z,0
2017-02-27T04:20:05.167Z,0
2017-02-27T04:21:15.795Z,0
2017-02-27T04:22:26.138Z,0
2017-02-27T04:23:36.507Z,0
2017-02-27T04:24:46.868Z,0
2017-02-27T04:25:57.210Z,0
2017-02-27T04:27:07.834Z,0
2017-02-27T04:28:17.799Z,0
2017-02-27T04:29:28.551Z,0
2017-02-27T04:30:39.306Z,0
2017-02-27T04:31:49.684Z,0
2017-02-27T04:32:59.894Z,0
2017-02-27T04:34:10.640Z,0
2017-02-27T04:35:20.986Z,0
2017-02-27T04:36:31.335Z,0
2017-02-27T04:37:41.687Z,0
2017-02-27T04:38:52.699Z,0
2017-02-27T04:40:03.443Z,0
2017-02-27T04:41:13.820Z,0
2017-02-27T04:42:24.576Z,0
2017-02-27T04:43:34.548Z,0
2017-02-27T04:44:45.159Z,0
2017-02-27T04:45:55.521Z,0
2017-02-27T04:47:05.863Z,0
2017-02-27T04:48:16.625Z,0
2017-02-27T04:49:26.981Z,0
2017-02-27T04:50:36.845Z,0
2017-02-27T04:51:46.420Z,0
2017-02-27T04:52:57.198Z,0
2017-02-27T04:54:07.604Z,0
2017-02-27T04:55:18.362Z,0
2017-02-27T04:56:29.417Z,0
2017-02-27T04:57:39.753Z,0
2017-02-27T04:58:50.117Z,0
2017-02-27T05:00:00.486Z,0
2017-02-27T05:01:11.241Z,0
2017-02-27T05:02:22.256Z,0
2017-02-27T05:03:33.005Z,0
2017-02-27T05:04:43.751Z,0
2017-02-27T05:05:53.689Z,0
2017-02-27T05:07:04.058Z,0
2017-02-27T05:08:14.736Z,0
2017-02-27T05:09:25.504Z,0
2017-02-27T05:10:35.459Z,0
2017-02-27T05:11:45.824Z,0
2017-02-27T05:12:56.575Z,0
2017-02-27T05:14:06.803Z,0
2017-02-27T05:15:17.560Z,0
2017-02-27T05:16:27.526Z,0
2017-02-27T05:17:37.888Z,0
2017-02-27T05:18:48.631Z,0
2017-02-27T05:19:59.248Z,0
2017-02-27T05:21:09.992Z,0
2017-02-27T05:22:20.367Z,0
2017-02-27T05:23:31.139Z,0
2017-02-27T05:24:41.880Z,0
2017-02-27T05:25:52.858Z,0
2017-02-27T05:27:03.316Z,0
2017-02-27T05:28:13.669Z,0
2017-02-27T05:29:24.415Z,0
2017-02-27T05:30:35.155Z,0
2017-02-27T05:31:46.161Z,0
2017-02-27T05:32:56.920Z,0
2017-02-27T05:34:07.279Z,0
2017-02-27T05:35:17.274Z,0
2017-02-27T05:36:27.618Z,0
2017-02-27T05:37:38.615Z,0
2017-02-27T05:38:49.385Z,0
2017-02-27T05:40:00.126Z,0
2017-02-27T05:41:10.869Z,0
2017-02-27T05:42:21.230Z,0
2017-02-27T05:43:31.848Z,0
2017-02-27T05:44:42.597Z,0
2017-02-27T05:45:53.346Z,0
2017-02-27T05:47:03.689Z,0
2017-02-27T05:48:14.442Z,0
2017-02-27T05:49:25.054Z,0
2017-02-27T05:50:35.420Z,0
2017-02-27T05:51:45.371Z,0
2017-02-27T05:52:55.734Z,0
2017-02-27T05:54:06.087Z,0
2017-02-27T05:55:17.098Z,0
2017-02-27T05:56:26.645Z,0
2017-02-27T05:57:37.402Z,0
2017-02-27T05:58:47.771Z,0
2017-02-27T05:59:58.118Z,0
2017-02-27T06:01:07.947Z,5
2017-02-27T06:02:18.312Z,5
2017-02-27T06:03:29.064Z,5
2017-02-27T06:04:39.808Z,5
2017-02-27T06:05:50.561Z,5
2017-02-27T06:07:01.247Z,5
2017-02-27T06:08:11.610Z,5
2017-02-27T06:09:22.357Z,5
2017-02-27T06:10:33.096Z,5
2017-02-27T06:11:43.842Z,5
2017-02-27T06:12:54.917Z,5
2017-02-27T06:14:04.483Z,10
2017-02-27T06:15:15.253Z,10
2017-02-27T06:16:25.225Z,10
2017-02-27T06:17:35.209Z,10
2017-02-27T06:18:46.213Z,10
2017-02-27T06:19:56.568Z,10
2017-02-27T06:21:06.962Z,10
2017-02-27T06:22:17.714Z,10
2017-02-27T06:23:28.068Z,15
2017-02-27T06:24:39.094Z,15
2017-02-27T06:25:49.417Z,15
2017-02-27T06:26:59.382Z,15
2017-02-27T06:28:09.737Z,15
2017-02-27T06:29:20.476Z,15
2017-02-27T06:30:31.493Z,15
2017-02-27T06:31:41.855Z,20
2017-02-27T06:32:51.436Z,20
2017-02-27T06:34:02.205Z,20
2017-02-27T06:35:12.968Z,20
2017-02-27T06:36:23.622Z,20
2017-02-27T06:37:34.387Z,20
2017-02-27T06:38:44.783Z,20
2017-02-27T06:39:55.549Z,20
2017-02-27T06:41:06.339Z,20
2017-02-27T06:42:17.366Z,25
2017-02-27T06:43:28.141Z,25
2017-02-27T06:44:38.534Z,25
2017-02-27T06:45:49.315Z,25
2017-02-27T06:46:59.671Z,25
2017-02-27T06:48:10.655Z,25
2017-02-27T06:49:21.001Z,25
2017-02-27T06:50:31.751Z,25
2017-02-27T06:51:42.121Z,25
2017-02-27T06:52:52.476Z,30
2017-02-27T06:54:03.524Z,30
2017-02-27T06:55:14.253Z,30
2017-02-27T06:56:24.642Z,30
2017-02-27T06:57:34.205Z,30
2017-02-27T06:58:44.586Z,30
2017-02-27T06:59:55.587Z,30
2017-02-27T07:01:05.566Z,30
2017-02-27T07:02:15.939Z,30
2017-02-27T07:03:25.485Z,30
2017-02-27T07:04:35.459Z,30
2017-02-27T07:05:46.077Z,30
2017-02-27T07:06:56.442Z,30
2017-02-27T07:08:06.065Z,30
2017-02-27T07:09:16.474Z,35
2017-02-27T07:10:27.284Z,35
2017-02-27T07:11:37.519Z,35
2017-02-27T07:12:48.335Z,35
2017-02-27T07:13:58.700Z,35
2017-02-27T07:15:08.710Z,35
2017-02-27T07:16:19.081Z,35
2017-02-27T07:17:30.148Z,35
2017-02-27T07:18:40.509Z,35
2017-02-27T07:19:51.277Z,35
2017-02-27T07:21:02.046Z,40
2017-02-27T07:22:12.805Z,40
2017-02-27T07:23:23.473Z,40
2017-02-27T07:24:33.075Z,40
2017-02-27T07:25:43.824Z,40
2017-02-27T07:26:53.408Z,40
2017-02-27T07:28:03.778Z,40
2017-02-27T07:29:13.988Z,45
2017-02-27T07:30:24.372Z,50
2017-02-27T07:31:33.940Z,45
2017-02-27T07:32:44.306Z,45
2017-02-27T07:33:54.686Z,45
2017-02-27T07:35:05.367Z,45
2017-02-27T07:36:15.745Z,45
2017-02-27T07:37:25.718Z,45
2017-02-27T07:38:36.481Z,45
2017-02-27T07:39:46.848Z,50
2017-02-27T07:40:57.847Z,50
2017-02-27T07:42:08.590Z,50
2017-02-27T07:43:18.951Z,55
2017-02-27T07:44:29.725Z,55
2017-02-27T07:45:40.102Z,55
2017-02-27T07:46:50.373Z,50
2017-02-27T07:48:00.408Z,50
2017-02-27T07:49:10.769Z,55
2017-02-27T07:50:20.727Z,55
2017-02-27T07:51:31.098Z,55
2017-02-27T07:52:41.757Z,55
2017-02-27T07:53:52.522Z,55
2017-02-27T07:55:03.559Z,55
2017-02-27T07:56:14.311Z,60
2017-02-27T07:57:24.659Z,60
2017-02-27T07:58:35.266Z,60
2017-02-27T07:59:45.230Z,60
2017-02-27T08:00:55.988Z,60
2017-02-27T08:02:06.367Z,60
2017-02-27T08:03:16.743Z,55
2017-02-27T08:04:27.769Z,60
2017-02-27T08:05:38.554Z,60
2017-02-27T08:06:49.364Z,60
2017-02-27T08:08:00.148Z,60
2017-02-27T08:09:10.152Z,60
2017-02-27T08:10:20.823Z,65
2017-02-27T08:11:31.588Z,70
2017-02-27T08:12:42.382Z,75
2017-02-27T08:13:52.770Z,80
2017-02-27T08:15:03.582Z,75
2017-02-27T08:16:14.263Z,75
2017-02-27T08:17:25.043Z,70
2017-02-27T08:18:35.047Z,70
2017-02-27T08:19:45.848Z,65
2017-02-27T08:20:56.673Z,65
2017-02-27T08:22:06.953Z,65
2017-02-27T08:23:17.726Z,65
2017-02-27T08:24:27.697Z,65
2017-02-27T08:25:38.052Z,65
2017-02-27T08:26:48.826Z,65
2017-02-27T08:27:59.483Z,65
2017-02-27T08:29:09.870Z,65
2017-02-27T08:30:20.237Z,60
2017-02-27T08:31:31.036Z,60
2017-02-27T08:32:41.831Z,60
2017-02-27T08:33:52.618Z,60
2017-02-27T08:35:02.203Z,60
2017-02-27T08:36:12.573Z,60
2017-02-27T08:37:23.309Z,60
2017-02-27T08:38:34.109Z,60
2017-02-27T08:39:44.711Z,60
2017-02-27T08:40:54.672Z,60
2017-02-27T08:42:05.050Z,60
2017-02-27T08:43:15.802Z,60
2017-02-27T08:44:26.181Z,60
2017-02-27T08:45:36.387Z,60
2017-02-27T08:46:47.165Z,60
2017-02-27T08:47:57.130Z,60
2017-02-27T08:49:07.111Z,60
2017-02-27T08:50:17.898Z,60
2017-02-27T08:51:28.993Z,60
2017-02-27T08:52:39.748Z,60
2017-02-27T08:53:50.115Z,60
2017-02-27T08:55:00.080Z,60
2017-02-27T08:56:10.679Z,60
2017-02-27T08:57:21.044Z,60
2017-02-27T08:58:31.837Z,60
2017-02-27T08:59:42.223Z,60
2017-02-27T09:00:52.602Z,60
2017-02-27T09:02:03.632Z,60
2017-02-27T09:03:14.262Z,60
2017-02-27T09:04:25.028Z,60
2017-02-27T09:05:35.793Z,60
2017-02-27T09:06:46.568Z,60
2017-02-27T09:07:57.587Z,60
2017-02-27T09:09:07.159Z,60
2017-02-27T09:10:17.520Z,60
2017-02-27T09:11:28.297Z,60
2017-02-27T09:12:38.503Z,60
2017-02-27T09:13:48.779Z,60
2017-02-27T09:14:59.130Z,60
2017-02-27T09:16:09.105Z,65
2017-02-27T09:17:19.058Z,65
2017-02-27T09:18:29.822Z,65
2017-02-27T09:19:40.005Z,65
2017-02-27T09:20:50.794Z,70
2017-02-27T09:22:01.601Z,70
2017-02-27T09:23:12.346Z,65
2017-02-27T09:24:22.703Z,65
2017-02-27T09:25:33.328Z,65
2017-02-27T09:26:44.122Z,65
2017-02-27T09:27:54.487Z,65
2017-02-27T09:29:04.836Z,65
2017-02-27T09:30:15.600Z,65
2017-02-27T09:31:26.221Z,65
2017-02-27T09:32:35.798Z,65
2017-02-27T09:33:45.764Z,65
2017-02-27T09:34:56.536Z,65
2017-02-27T09:36:07.309Z,65
2017-02-27T09:37:17.527Z,65
2017-02-27T09:38:28.330Z,65
2017-02-27T09:39:38.284Z,65
2017-02-27T09:40:49.045Z,65
2017-02-27T09:41:59.018Z,65
2017-02-27T09:43:09.629Z,65
2017-02-27T09:44:20.007Z,65
2017-02-27T09:45:29.575Z,65
2017-02-27T09:46:39.937Z,65
2017-02-27T09:47:50.682Z,60
2017-02-27T09:49:00.640Z,60
2017-02-27T09:50:10.200Z,60
2017-02-27T09:51:20.999Z,60
2017-02-27T09:52:31.767Z,60
2017-02-27T09:53:41.988Z,60
2017-02-27T09:54:52.343Z,60
2017-02-27T09:56:03.117Z,60
2017-02-27T09:57:13.888Z,60
2017-02-27T09:58:24.678Z,60
2017-02-27T09:59:34.543Z,60
2017-02-27T10:00:44.909Z,60
2017-02-27T10:01:55.689Z,60
2017-02-27T10:03:05.683Z,60
2017-02-27T10:04:16.455Z,60
2017-02-27T10:05:27.459Z,60
2017-02-27T10:06:38.279Z,60
2017-02-27T10:07:49.085Z,60
2017-02-27T10:08:59.043Z,60
2017-02-27T10:10:09.801Z,60
2017-02-27T10:11:20.490Z,60
2017-02-27T10:12:30.859Z,60
2017-02-27T10:13:41.264Z,60
2017-02-27T10:14:52.020Z,65
2017-02-27T10:16:02.387Z,65
2017-02-27T10:17:13.407Z,65
2017-02-27T10:18:23.780Z,65
2017-02-27T10:19:34.551Z,65
2017-02-27T10:20:44.909Z,65
2017-02-27T10:21:55.264Z,65
2017-02-27T10:23:05.875Z,65
2017-02-27T10:24:16.640Z,65
2017-02-27T10:25:27.396Z,65
2017-02-27T10:26:37.374Z,65
2017-02-27T10:27:48.123Z,70
2017-02-27T10:28:59.136Z,70
2017-02-27T10:30:09.903Z,70
2017-02-27T10:31:20.703Z,75
2017-02-27T10:32:31.476Z,75
2017-02-27T10:33:42.243Z,80
2017-02-27T10:34:53.300Z,80
2017-02-27T10:36:04.058Z,80
2017-02-27T10:37:14.848Z,80
2017-02-27T10:38:25.607Z,75
2017-02-27T10:39:36.013Z,75
2017-02-27T10:40:47.062Z,70
2017-02-27T10:41:57.508Z,70
2017-02-27T10:43:08.264Z,70
2017-02-27T10:44:19.010Z,70
2017-02-27T10:45:29.780Z,80
2017-02-27T10:46:40.771Z,85
2017-02-27T10:47:50.771Z,85
2017-02-27T10:49:01.552Z,85
2017-02-27T10:50:12.289Z,85
2017-02-27T10:51:22.269Z,80
2017-02-27T10:52:32.909Z,90
2017-02-27T10:53:43.265Z,110
2017-02-27T10:54:53.639Z,120
2017-02-27T10:56:04.422Z,120
2017-02-27T10:57:15.207Z,95
2017-02-27T10:58:25.878Z,95
2017-02-27T10:59:36.352Z,85
2017-02-27T11:00:46.709Z,80
2017-02-27T11:01:57.476Z,90
2017-02-27T11:03:07.872Z,95
2017-02-27T11:04:18.650Z,110
2017-02-27T11:05:29.445Z,115
2017-02-27T11:06:40.218Z,115
2017-02-27T11:07:50.659Z,115
2017-02-27T11:09:01.685Z,115
2017-02-27T11:10:12.057Z,115
2017-02-27T11:11:22.846Z,120
2017-02-27T11:12:33.648Z,115
2017-02-27T11:13:43.622Z,120
2017-02-27T11:14:54.388Z,115
2017-02-27T11:16:04.749Z,115
2017-02-27T11:17:15.104Z,110
2017-02-27T11:18:25.881Z,105
2017-02-27T11:19:36.087Z,105
2017-02-27T11:20:46.452Z,115
2017-02-27T11:21:57.216Z,115
2017-02-27T11:23:08.006Z,110
2017-02-27T11:24:18.784Z,105
2017-02-27T11:25:29.012Z,110
2017-02-27T11:26:39.782Z,115
2017-02-27T11:27:50.196Z,110
2017-02-27T11:29:00.974Z,100
2017-02-27T11:30:11.782Z,95
2017-02-27T11:31:22.947Z,105
2017-02-27T11:32:33.295Z,115
2017-02-27T11:33:44.074Z,115
2017-02-27T11:34:54.475Z,110
2017-02-27T11:36:04.454Z,100
2017-02-27T11:37:15.379Z,100
2017-02-27T11:38:25.843Z,100
2017-02-27T11:39:36.249Z,100
2017-02-27T11:40:47.014Z,100
2017-02-27T11:41:57.370Z,100
2017-02-27T11:43:07.981Z,115
2017-02-27T11:44:18.340Z,115
2017-02-27T11:45:28.717Z,115
2017-02-27T11:46:39.106Z,110
2017-02-27T11:47:49.872Z,110
2017-02-27T11:49:00.294Z,110
2017-02-27T11:50:10.673Z,115
2017-02-27T11:51:20.262Z,115
2017-02-27T11:52:30.642Z,100
2017-02-27T11:53:40.861Z,90
2017-02-27T11:54:51.612Z,95
2017-02-27T11:56:01.997Z,115
2017-02-27T11:57:12.369Z,110
2017-02-27T11:58:22.332Z,100
2017-02-27T11:59:32.962Z,90
2017-02-27T12:00:43.734Z,95
2017-02-27T12:01:54.118Z,110
2017-02-27T12:03:04.889Z,105
2017-02-27T12:04:15.260Z,110
2017-02-27T12:05:25.863Z,100
2017-02-27T12:06:36.205Z,95
2017-02-27T12:07:46.972Z,100
2017-02-27T12:08:57.744Z,100
2017-02-27T12:10:07.299Z,95
2017-02-27T12:11:17.917Z,95
2017-02-27T12:12:27.891Z,105
2017-02-27T12:13:37.871Z,105
2017-02-27T12:14:48.649Z,100
2017-02-27T12:15:59.043Z,95
2017-02-27T12:17:09.680Z,90
2017-02-27T12:18:20.438Z,95
2017-02-27T12:19:30.811Z,95
2017-02-27T12:20:40.797Z,90
2017-02-27T12:21:51.561Z,90
2017-02-27T12:23:02.291Z,95
2017-02-27T12:24:13.049Z,90
2017-02-27T12:25:23.852Z,90
2017-02-27T12:26:33.803Z,80
2017-02-27T12:27:44.157Z,75
2017-02-27T12:28:55.180Z,75
2017-02-27T12:30:05.562Z,70
2017-02-27T12:31:16.317Z,70
2017-02-27T12:32:27.088Z,65
2017-02-27T12:33:37.479Z,75
2017-02-27T12:34:48.108Z,70
2017-02-27T12:35:58.527Z,70
2017-02-27T12:37:08.921Z,75
2017-02-27T12:38:19.275Z,75
2017-02-27T12:39:29.260Z,75
2017-02-27T12:40:40.309Z,80
2017-02-27T12:41:49.897Z,90
2017-02-27T12:43:00.674Z,95
2017-02-27T12:44:11.322Z,105
2017-02-27T12:45:21.711Z,95
2017-02-27T12:46:32.808Z,95
2017-02-27T12:47:43.640Z,95
2017-02-27T12:48:54.036Z,100
2017-02-27T12:50:04.818Z,105
2017-02-27T12:51:15.263Z,100
2017-02-27T12:52:25.471Z,100
2017-02-27T12:53:35.439Z,105
2017-02-27T12:54:45.823Z,100
2017-02-27T12:55:56.174Z,100
2017-02-27T12:57:06.583Z,105
2017-02-27T12:58:16.888Z,105
2017-02-27T12:59:27.701Z,100
2017-02-27T13:00:38.470Z,95
2017-02-27T13:01:49.230Z,95
2017-02-27T13:02:59.634Z,100
2017-02-27T13:04:09.904Z,105
2017-02-27T13:05:20.667Z,100
2017-02-27T13:06:30.652Z,85
2017-02-27T13:07:41.017Z,80
2017-02-27T13:08:51.391Z,80
2017-02-27T13:10:01.588Z,85
2017-02-27T13:11:12.385Z,85
2017-02-27T13:12:22.766Z,85
2017-02-27T13:13:33.541Z,80
2017-02-27T13:14:44.312Z,80
2017-02-27T13:15:54.594Z,75
2017-02-27T13:17:05.381Z,80
2017-02-27T13:18:15.388Z,90
2017-02-27T13:19:25.797Z,95
2017-02-27T13:20:36.149Z,95
2017-02-27T13:21:46.793Z,95
2017-02-27T13:22:57.660Z,90
2017-02-27T13:24:08.019Z,85
2017-02-27T13:25:18.415Z,85
2017-02-27T13:26:28.786Z,80
2017-02-27T13:27:39.400Z,80
2017-02-27T13:28:50.182Z,80
2017-02-27T13:30:00.957Z,65
2017-02-27T13:31:10.968Z,60
2017-02-27T13:32:21.323Z,55
2017-02-27T13:33:31.561Z,55
2017-02-27T13:34:42.336Z,60
2017-02-27T13:35:52.706Z,65
2017-02-27T13:37:03.490Z,65
2017-02-27T13:38:14.244Z,70
2017-02-27T13:39:25.247Z,65
2017-02-27T13:40:36.027Z,60
2017-02-27T13:41:46.795Z,55
2017-02-27T13:42:57.294Z,50
2017-02-27T13:44:07.694Z,45
2017-02-27T13:45:18.772Z,45
2017-02-27T13:46:29.145Z,50
2017-02-27T13:47:39.524Z,50
2017-02-27T13:48:49.885Z,50
2017-02-27T13:50:00.668Z,55
2017-02-27T13:51:10.943Z,55
2017-02-27T13:52:21.332Z,50
2017-02-27T13:53:32.126Z,60
2017-02-27T13:54:42.521Z,55
2017-02-27T13:55:52.097Z,50
2017-02-27T13:57:03.199Z,50
2017-02-27T13:58:13.967Z,60
2017-02-27T13:59:24.355Z,55
2017-02-27T14:00:34.748Z,55
2017-02-27T14:01:44.727Z,50
2017-02-27T14:02:55.756Z,45
2017-02-27T14:04:06.560Z,45
2017-02-27T14:05:17.359Z,45
2017-02-27T14:06:27.347Z,40
2017-02-27T14:07:37.324Z,40
2017-02-27T14:08:48.016Z,40
2017-02-27T14:09:57.593Z,40
2017-02-27T14:11:08.366Z,40
2017-02-27T14:12:19.148Z,40
2017-02-27T14:13:29.515Z,45
2017-02-27T14:14:40.203Z,45
2017-02-27T14:15:50.985Z,40
2017-02-27T14:17:01.758Z,40
2017-02-27T14:18:12.130Z,40
2017-02-27T14:19:22.088Z,40
2017-02-27T14:20:32.712Z,40
2017-02-27T14:21:43.090Z,40
2017-02-27T14:22:53.464Z,40
2017-02-27T14:24:03.438Z,40
2017-02-27T14:25:13.829Z,40
2017-02-27T14:26:24.451Z,40
2017-02-27T14:27:34.425Z,40
2017-02-27T14:28:45.215Z,40
2017-02-27T14:29:56.001Z,40
2017-02-27T14:31:05.996Z,35
2017-02-27T14:32:17.016Z,35
2017-02-27T14:33:27.387Z,35
2017-02-27T14:34:37.737Z,40
2017-02-27T14:35:48.561Z,40
2017-02-27T14:36:58.935Z,35
2017-02-27T14:38:09.954Z,35
2017-02-27T14:39:20.734Z,35
2017-02-27T14:40:31.131Z,35
2017-02-27T14:41:41.889Z,35
2017-02-27T14:42:52.644Z,35
2017-02-27T14:44:03.672Z,35
2017-02-27T14:45:14.114Z,35
2017-02-27T14:46:24.879Z,40
2017-02-27T14:47:35.280Z,35
2017-02-27T14:48:46.050Z,35
2017-02-27T14:49:56.699Z,35
2017-02-27T14:51:06.670Z,35
2017-02-27T14:52:17.444Z,35
2017-02-27T14:53:28.197Z,35
2017-02-27T14:54:38.940Z,35
2017-02-27T14:55:49.644Z,35
2017-02-27T14:56:58.813Z,35
2017-02-27T14:58:09.618Z,35
2017-02-27T14:59:20.046Z,35
2017-02-27T15:00:30.056Z,35
2017-02-27T15:01:41.076Z,35
2017-02-27T15:02:51.057Z,35
2017-02-27T15:04:01.822Z,30
2017-02-27T15:05:11.806Z,30
2017-02-27T15:06:21.804Z,35
2017-02-27T15:07:32.843Z,35
2017-02-27T15:08:43.186Z,35
2017-02-27T15:09:53.564Z,35
2017-02-27T15:11:03.943Z,30
2017-02-27T15:12:14.723Z,40
2017-02-27T15:13:25.013Z,40
2017-02-27T15:14:35.748Z,40
2017-02-27T15:15:46.522Z,35
2017-02-27T15:16:56.477Z,35
2017-02-27T15:18:07.223Z,30
2017-02-27T15:19:18.247Z,30
2017-02-27T15:20:28.635Z,30
2017-02-27T15:21:39.392Z,30
2017-02-27T15:22:50.167Z,30
2017-02-27T15:24:00.539Z,30
2017-02-27T15:25:11.565Z,30
2017-02-27T15:26:21.550Z,30
2017-02-27T15:27:31.908Z,30
2017-02-27T15:28:42.282Z,30
2017-02-27T15:29:52.254Z,35
2017-02-27T15:31:02.116Z,30
2017-02-27T15:32:12.948Z,35
2017-02-27T15:33:22.931Z,30
2017-02-27T15:34:33.724Z,30
2017-02-27T15:35:44.484Z,30
2017-02-27T15:36:54.702Z,25
2017-02-27T15:38:04.315Z,25
2017-02-27T15:39:14.685Z,25
2017-02-27T15:40:25.451Z,25
2017-02-27T15:41:36.212Z,25
2017-02-27T15:42:46.892Z,25
2017-02-27T15:43:57.656Z,25
2017-02-27T15:45:08.467Z,25
2017-02-27T15:46:18.891Z,25
2017-02-27T15:47:29.256Z,25
2017-02-27T15:48:40.277Z,25
2017-02-27T15:49:50.658Z,20
2017-02-27T15:51:01.025Z,20
2017-02-27T15:52:11.784Z,20
2017-02-27T15:53:22.543Z,20
2017-02-27T15:54:32.750Z,20
2017-02-27T15:55:43.132Z,20
2017-02-27T15:56:53.492Z,20
2017-02-27T15:58:03.873Z,20
2017-02-27T15:59:13.858Z,20
2017-02-27T16:00:24.529Z,15
2017-02-27T16:01:34.896Z,15
2017-02-27T16:02:45.675Z,15
2017-02-27T16:03:56.033Z,15
2017-02-27T16:05:06.795Z,15
2017-02-27T16:06:17.122Z,15
2017-02-27T16:07:27.913Z,10
2017-02-27T16:08:38.286Z,10
2017-02-27T16:09:48.629Z,10
2017-02-27T16:10:59.380Z,10
2017-02-27T16:12:09.993Z,10
2017-02-27T16:13:20.374Z,10
2017-02-27T16:14:30.735Z,10
2017-02-27T16:15:41.116Z,10
2017-02-27T16:16:51.076Z,10
2017-02-27T16:18:01.717Z,5
2017-02-27T16:19:12.492Z,5
2017-02-27T16:20:23.241Z,5
2017-02-27T16:21:32.812Z,5
2017-02-27T16:22:42.794Z,5
2017-02-27T16:23:53.456Z,5
2017-02-27T16:25:03.814Z,5
2017-02-27T16:26:14.197Z,5
2017-02-27T16:27:24.968Z,5
2017-02-27T16:28:35.347Z,5
2017-02-27T16:29:46.380Z,5
2017-02-27T16:30:57.161Z,5
2017-02-27T16:32:07.952Z,0
2017-02-27T16:33:18.365Z,0
2017-02-27T16:34:28.707Z,0
2017-02-27T16:35:38.578Z,0
2017-02-27T16:36:49.368Z,0
2017-02-27T16:37:59.753Z,0
2017-02-27T16:39:10.517Z,0
2017-02-27T16:40:21.292Z,0
2017-02-27T16:41:32.337Z,0
2017-02-27T16:42:43.088Z,0
2017-02-27T16:43:53.048Z,0
2017-02-27T16:45:03.417Z,0
2017-02-27T16:46:14.172Z,0
2017-02-27T16:47:25.444Z,0
2017-02-27T16:48:35.791Z,0
2017-02-27T16:49:45.397Z,0
2017-02-27T16:50:54.991Z,0
2017-02-27T16:52:05.753Z,0
2017-02-27T16:53:16.416Z,0
2017-02-27T16:54:27.183Z,0
2017-02-27T16:55:37.581Z,0
2017-02-27T16:56:48.370Z,0
2017-02-27T16:57:59.148Z,0
2017-02-27T16:59:09.766Z,0
2017-02-27T17:00:20.528Z,0
2017-02-27T17:01:30.906Z,0
2017-02-27T17:02:40.873Z,0
2017-02-27T17:03:51.241Z,0
2017-02-27T17:05:01.922Z,0
2017-02-27T17:06:12.697Z,0
2017-02-27T17:07:23.434Z,0
2017-02-27T17:08:34.207Z,0
2017-02-27T17:09:44.578Z,0
2017-02-27T17:10:55.641Z,0
2017-02-27T17:12:06.404Z,0
2017-02-27T17:13:16.797Z,0
2017-02-27T17:14:27.219Z,0
2017-02-27T17:15:37.994Z,0